TimeCDT,TemperatureF,Dew PointF,Humidity,Sea Level PressureIn,VisibilityMPH,Wind Direction,Wind SpeedMPH,Gust SpeedMPH,PrecipitationIn,Events,Conditions,WindDirDegrees,DateUTC
12:52 AM,32.0,30.0,92,29.82,6.0,North,17.3,26.5,N/A,,Overcast,350,2013-03-10 06:52:00
1:49 AM,32.0,30.2,93,29.81,1.8,North,20.7,27.6,0.00,Snow,Light Snow,350,2013-03-10 07:49:00
1:52 AM,32.0,30.0,92,29.83,1.5,North,21.9,29.9,0.00,Snow,Light Snow,350,2013-03-10 07:52:00
3:20 AM,30.2,30.2,100,29.80,1.0,North,23.0,28.8,0.01,Snow,Light Snow,350,2013-03-10 08:20:00
3:29 AM,30.2,30.2,100,29.80,1.0,North,23.0,-,0.02,Snow,Light Snow,350,2013-03-10 08:29:00
3:52 AM,30.9,30.0,96,29.83,1.0,North,21.9,-,0.03,Snow,Light Snow,350,2013-03-10 08:52:00
4:01 AM,30.2,28.4,93,29.82,0.8,North,21.9,33.4,0.00,Snow,Light Snow,350,2013-03-10 09:01:00
4:52 AM,30.0,30.0,100,29.87,1.0,North,18.4,-,0.03,Snow,Light Snow,350,2013-03-10 09:52:00
5:26 AM,30.2,28.4,93,29.86,2.0,North,21.9,-,0.01,Snow,Light Snow,350,2013-03-10 10:26:00
5:34 AM,30.2,28.4,93,29.86,1.8,North,20.7,-,0.01,Snow,Light Snow,350,2013-03-10 10:34:00
5:52 AM,30.0,28.0,92,29.88,1.8,North,21.9,-,0.01,Snow,Light Snow,350,2013-03-10 10:52:00
5:56 AM,30.2,28.4,93,29.85,2.0,North,21.9,27.6,0.00,Snow,Light Snow,350,2013-03-10 10:56:00
5:59 AM,30.2,28.4,93,29.85,1.8,North,20.7,-,0.00,Snow,Light Snow,360,2013-03-10 10:59:00
6:52 AM,28.4,28.4,100,29.90,1.0,NNW,18.4,-,N/A,Snow,Light Snow,340,2013-03-10 11:52:00
7:02 AM,28.4,28.4,100,29.90,0.8,NNW,19.6,23.0,0.00,Snow,Light Snow,340,2013-03-10 12:02:00
7:27 AM,28.4,26.6,93,29.90,1.0,North,23.0,-,0.01,Snow,Light Snow,350,2013-03-10 12:27:00
7:37 AM,28.4,26.6,93,29.89,1.2,North,24.2,32.2,0.01,Snow,Light Snow,350,2013-03-10 12:37:00
7:52 AM,28.9,26.1,89,29.94,2.0,North,24.2,32.2,0.01,Snow,Light Snow,350,2013-03-10 12:52:00
8:07 AM,28.4,26.6,93,29.89,1.8,North,23.0,31.1,0.00,Snow,Light Snow,350,2013-03-10 13:07:00
8:18 AM,28.4,26.6,93,29.87,1.5,North,25.3,34.5,0.00,Snow,Light Snow,350,2013-03-10 13:18:00
8:52 AM,28.0,25.0,88,29.96,1.2,NNW,24.2,-,0.00,Snow,Light Snow,340,2013-03-10 13:52:00
9:01 AM,28.4,24.8,86,29.93,1.5,North,25.3,32.2,0.00,Snow,Light Snow,350,2013-03-10 14:01:00
9:32 AM,26.6,24.8,93,29.91,2.0,North,25.3,-,0.00,Snow,Light Snow,350,2013-03-10 14:32:00
9:52 AM,27.0,24.1,89,29.94,2.0,North,24.2,-,0.00,Snow,Light Snow,350,2013-03-10 14:52:00
10:32 AM,26.6,23.0,86,29.91,1.5,North,29.9,39.1,0.00,Snow,Light Snow,350,2013-03-10 15:32:00
10:52 AM,27.0,24.1,89,29.97,2.0,North,23.0,36.8,0.00,Snow,Light Snow,350,2013-03-10 15:52:00
11:14 AM,26.6,23.0,86,29.92,1.2,North,29.9,40.3,0.00,Snow,Light Snow,350,2013-03-10 16:14:00
11:52 AM,27.0,24.1,89,29.97,1.2,North,27.6,38.0,0.00,Snow,Light Snow,350,2013-03-10 16:52:00
12:52 PM,27.0,23.0,85,29.96,1.2,North,27.6,38.0,0.00,Snow,Light Snow,360,2013-03-10 17:52:00
1:07 PM,26.6,23.0,86,29.92,2.0,North,28.8,35.7,0.00,Snow,Light Snow,350,2013-03-10 18:07:00
1:14 PM,26.6,23.0,86,29.92,1.5,North,32.2,36.8,0.00,Snow,Light Snow,350,2013-03-10 18:14:00
1:40 PM,26.6,23.0,86,29.94,2.0,North,20.7,33.4,0.00,Snow,Light Snow,350,2013-03-10 18:40:00
1:52 PM,27.0,23.0,85,29.98,2.0,North,24.2,34.5,0.00,Snow,Light Snow,360,2013-03-10 18:52:00
2:04 PM,26.6,23.0,86,29.94,3.0,North,24.2,33.4,0.00,Snow,Light Snow,350,2013-03-10 19:04:00
2:09 PM,26.6,23.0,86,29.94,2.0,North,24.2,32.2,0.00,Snow,Light Snow,350,2013-03-10 19:09:00
2:16 PM,26.6,23.0,86,29.92,1.0,North,27.6,35.7,0.00,Snow,Light Snow,350,2013-03-10 19:16:00
2:23 PM,26.6,23.0,86,29.92,2.0,North,24.2,35.7,0.01,Snow,Light Snow,350,2013-03-10 19:23:00
2:52 PM,26.1,21.9,84,29.95,0.8,North,25.3,35.7,0.01,Snow,Light Snow,350,2013-03-10 19:52:00
3:20 PM,26.6,21.2,80,29.92,0.5,NNW,20.7,-,0.01,Fog,Light Freezing Fog,340,2013-03-10 20:20:00
3:52 PM,26.1,23.0,88,29.96,0.8,North,20.7,-,0.03,,Overcast,350,2013-03-10 20:52:00
4:52 PM,26.1,24.1,92,29.96,0.5,NNW,18.4,-,0.01,Fog-Snow,Snow,340,2013-03-10 21:52:00
5:52 PM,26.1,23.0,88,29.96,0.8,NNW,20.7,29.9,0.02,Snow,Light Snow,340,2013-03-10 22:52:00
6:01 PM,26.6,23.0,86,29.92,0.5,North,17.3,-,0.01,Fog-Snow,Snow,350,2013-03-10 23:01:00
6:44 PM,26.6,23.0,86,29.94,0.5,North,19.6,24.2,0.03,Fog-Snow,Snow,350,2013-03-10 23:44:00
6:52 PM,26.1,23.0,88,29.98,0.5,North,20.7,-,0.04,Fog,Light Freezing Fog,350,2013-03-10 23:52:00
7:01 PM,24.8,23.0,93,29.95,0.5,North,18.4,-,N/A,Fog,Light Freezing Fog,350,2013-03-11 00:01:00
7:32 PM,24.8,23.0,93,29.95,1.0,NNW,16.1,24.2,0.02,Snow,Light Snow,340,2013-03-11 00:32:00
7:52 PM,25.0,21.9,88,29.99,1.0,North,23.0,28.8,0.02,,Mist,350,2013-03-11 00:52:00
8:36 PM,23.0,19.4,86,29.96,1.5,North,20.7,-,0.01,,Overcast,350,2013-03-11 01:36:00
8:52 PM,23.0,19.9,88,30.01,1.8,North,18.4,-,0.02,Snow,Light Snow,350,2013-03-11 01:52:00
9:04 PM,23.0,19.4,86,29.96,2.5,NNW,21.9,27.6,N/A,,Overcast,340,2013-03-11 02:04:00
9:21 PM,23.0,19.4,86,29.97,3.0,NNW,19.6,-,0.00,Snow,Light Snow,340,2013-03-11 02:21:00
9:52 PM,23.0,18.0,81,30.01,5.0,NNW,23.0,-,0.00,Snow,Light Snow,340,2013-03-11 02:52:00
10:52 PM,23.0,18.0,81,30.01,9.0,NNW,20.7,-,0.00,Snow,Light Snow,340,2013-03-11 03:52:00
11:52 PM,21.9,18.0,85,30.00,9.0,NNW,18.4,-,0.00,Snow,Light Snow,330,2013-03-11 04:52:00
12:52 AM,23.0,18.0,81,29.99,9.0,NNW,16.1,-,0.00,Snow,Light Snow,330,2013-03-11 05:52:00